Time;durP1;ratioP1;P1;durP2;ratioP2;P2;SDS_P1;SDS_P2;PMS_P1;PMS_P2;Temp;Humidity;BMP_temperature;BMP_pressure;BME280_temperature;BME280_humidity;BME280_pressure;Samples;Min_cycle;Max_cycle;Signal;HPM_P1;HPM_P2
2023/01/08 07:06:29;;;;;;;8.13;3.30;;;;;;;7.62;96.50;100019.06;5253383;28;20732;-74
2023/01/08 07:09:00;;;;;;;9.68;3.28;;;;;;;7.57;96.02;100021.88;5246419;28;20044;-74
2023/01/08 07:11:32;;;;;;;7.60;3.13;;;;;;;7.59;96.24;100016.84;5258175;28;20349;-76
2023/01/08 07:14:03;;;;;;;11.38;2.92;;;;;;;7.56;95.60;100007.22;5259664;28;20449;-76
2023/01/08 07:16:35;;;;;;;9.23;3.08;;;;;;;7.53;95.60;100009.75;5258631;28;20039;-75
2023/01/08 07:19:06;;;;;;;10.18;3.47;;;;;;;7.54;95.52;100003.97;5259187;28;20021;-75
2023/01/08 07:21:37;;;;;;;8.55;2.97;;;;;;;7.53;95.38;100001.47;5258882;28;20102;-75
2023/01/08 07:24:09;;;;;;;6.50;2.67;;;;;;;7.58;95.30;100002.25;5258134;28;20052;-75
2023/01/08 07:26:40;;;;;;;8.43;3.55;;;;;;;7.60;94.84;100002.78;5259001;28;20034;-75
2023/01/08 07:29:11;;;;;;;7.07;3.42;;;;;;;7.63;94.93;100004.97;5261599;28;20037;-75
2023/01/08 07:31:43;;;;;;;6.35;2.67;;;;;;;7.59;94.89;100016.84;5278505;28;20016;-76
2023/01/08 07:34:17;;;;;;;7.68;3.63;;;;;;;7.56;94.27;100011.94;5270635;28;20040;-75
2023/01/08 07:36:48;;;;;;;5.22;2.22;;;;;;;7.53;94.64;100002.28;5257848;28;20028;-75
2023/01/08 07:39:19;;;;;;;7.00;2.70;;;;;;;7.55;94.92;100005.59;5257190;28;20029;-75
2023/01/08 07:41:51;;;;;;;8.95;2.90;;;;;;;7.54;94.99;100009.47;5258009;28;20392;-76
2023/01/08 07:44:22;;;;;;;7.10;2.78;;;;;;;7.50;95.20;100008.41;5257563;28;20052;-75
2023/01/08 07:46:54;;;;;;;8.02;2.90;;;;;;;7.48;95.32;100005.09;5263519;28;20023;-75
2023/01/08 07:49:25;;;;;;;5.72;2.53;;;;;;;7.50;95.43;100000.13;5268784;28;20032;-76
2023/01/08 07:51:56;;;;;;;7.15;2.40;;;;;;;7.48;95.74;99994.06;5260853;28;20349;-76
2023/01/08 07:54:28;;;;;;;5.30;2.20;;;;;;;7.47;95.77;99997.94;5278907;28;20536;-75
2023/01/08 07:56:59;;;;;;;7.18;2.38;;;;;;;7.45;95.63;99999.34;5265063;28;20028;-76
2023/01/08 07:59:30;;;;;;;5.90;2.88;;;;;;;7.38;96.54;100003.25;5262031;28;20033;-76
2023/01/08 08:02:04;;;;;;;7.95;1.83;;;;;;;7.40;96.29;99997.44;5261516;28;20272;-76
2023/01/08 08:04:36;;;;;;;6.57;2.30;;;;;;;7.38;97.25;99994.97;5278133;28;20048;-76
2023/01/08 08:07:07;;;;;;;5.50;1.92;;;;;;;7.40;97.04;99992.75;5262646;28;20031;-75
2023/01/08 08:09:39;;;;;;;6.78;2.10;;;;;;;7.44;96.73;99976.47;5268479;28;20033;-75
2023/01/08 08:12:10;;;;;;;7.78;2.22;;;;;;;7.48;97.19;99977.50;5278688;28;20476;-75
2023/01/08 08:14:42;;;;;;;9.23;2.38;;;;;;;7.44;96.85;99975.63;5259532;28;20033;-76
2023/01/08 08:17:13;;;;;;;3.47;1.90;;;;;;;7.51;97.23;99971.41;5250766;28;20020;-77
2023/01/08 08:19:44;;;;;;;6.80;2.63;;;;;;;7.55;97.04;99966.16;5261023;28;20040;-75
2023/01/08 08:22:16;;;;;;;9.77;2.95;;;;;;;7.59;97.61;99954.25;5250924;28;20051;-76
2023/01/08 08:24:47;;;;;;;9.15;3.90;;;;;;;7.62;97.60;99958.34;5265132;28;20120;-76
2023/01/08 08:27:18;;;;;;;5.38;2.10;;;;;;;7.66;97.68;99956.63;5248444;28;20021;-76
2023/01/08 08:29:50;;;;;;;7.57;2.85;;;;;;;7.72;97.41;99966.53;5263041;28;20021;-76
2023/01/08 08:32:21;;;;;;;4.93;2.30;;;;;;;7.71;97.65;99961.28;5247545;28;20040;-74
2023/01/08 08:34:52;;;;;;;9.95;3.72;;;;;;;7.73;97.79;99961.81;5241651;28;20095;-74
2023/01/08 08:37:24;;;;;;;5.28;2.30;;;;;;;7.72;97.75;99965.69;5243783;28;20025;-74
2023/01/08 08:39:55;;;;;;;11.02;3.65;;;;;;;7.77;98.05;99958.19;5243260;28;20109;-75
2023/01/08 08:42:26;;;;;;;4.85;2.40;;;;;;;7.71;98.00;99964.03;5223372;28;20426;-75
2023/01/08 08:44:58;;;;;;;6.03;2.10;;;;;;;7.71;98.45;99964.88;5222950;28;20038;-75
2023/01/08 08:47:29;;;;;;;5.80;2.72;;;;;;;7.65;98.01;99962.47;5222991;28;20022;-76
2023/01/08 08:50:01;;;;;;;11.10;2.17;;;;;;;7.61;99.08;99962.22;5222298;28;20021;-76
2023/01/08 08:52:33;;;;;;;9.20;2.42;;;;;;;7.59;99.20;99957.00;5242480;28;20076;-76
2023/01/08 08:55:05;;;;;;;8.85;1.98;;;;;;;7.58;99.15;99958.09;5231646;28;20025;-75
2023/01/08 08:57:37;;;;;;;7.78;2.25;;;;;;;7.57;99.22;99950.13;5240130;28;20033;-75
2023/01/08 09:00:09;;;;;;;5.10;2.90;;;;;;;7.63;99.30;99955.28;5243285;28;20414;-75
2023/01/08 09:02:40;;;;;;;8.90;3.03;;;;;;;7.57;99.39;99947.38;5242272;28;20029;-75
2023/01/08 09:05:12;;;;;;;7.85;2.20;;;;;;;7.53;99.49;99957.31;5242824;28;20060;-76
2023/01/08 09:07:43;;;;;;;7.45;2.58;;;;;;;7.53;100.00;99940.78;5242743;28;20041;-75
2023/01/08 09:10:14;;;;;;;9.45;2.40;;;;;;;7.54;100.00;99945.16;5242246;28;20029;-76
2023/01/08 09:12:46;;;;;;;6.53;2.13;;;;;;;7.51;100.00;99937.47;5242608;28;20476;-76
2023/01/08 09:15:17;;;;;;;8.48;2.35;;;;;;;7.47;100.00;99941.94;5236953;28;20331;-76
2023/01/08 09:17:53;;;;;;;6.05;2.88;;;;;;;7.37;100.00;99937.34;5236574;28;20029;-76
2023/01/08 09:20:25;;;;;;;6.32;2.40;;;;;;;7.41;100.00;99935.63;5241895;28;20030;-76
2023/01/08 09:22:58;;;;;;;4.55;2.00;;;;;;;7.44;100.00;99937.00;5235481;28;20033;-76
2023/01/08 09:25:30;;;;;;;4.63;2.42;;;;;;;7.47;100.00;99936.44;5235085;28;20046;-76
2023/01/08 09:28:05;;;;;;;6.18;2.20;;;;;;;7.46;100.00;99941.09;5242318;28;20480;-76
2023/01/08 09:30:38;;;;;;;7.05;2.88;;;;;;;7.51;100.00;99937.47;5242099;28;20488;-76
2023/01/08 09:33:10;;;;;;;5.88;2.70;;;;;;;7.50;100.00;99930.31;5241097;28;20401;-76
2023/01/08 09:35:43;;;;;;;7.38;2.45;;;;;;;7.54;100.00;99923.94;5223585;28;20030;-76
2023/01/08 09:38:20;;;;;;;5.55;2.10;;;;;;;7.53;100.00;99919.53;5237298;28;20443;-76
2023/01/08 09:41:09;;;;;;;7.38;2.95;;;;;;;7.57;100.00;99920.59;5242747;28;20175;-76
2023/01/08 09:43:45;;;;;;;6.35;2.72;;;;;;;7.54;100.00;99909.28;5221993;28;20026;-76
2023/01/08 09:46:20;;;;;;;5.65;2.40;;;;;;;7.52;100.00;99908.78;5229266;28;20448;-76
2023/01/08 09:48:55;;;;;;;6.10;2.03;;;;;;;7.55;100.00;99910.97;5245408;28;20022;-76
2023/01/08 09:51:35;;;;;;;7.35;2.88;;;;;;;7.55;100.00;99911.78;5241347;28;20086;-76
2023/01/08 09:54:14;;;;;;;7.30;2.42;;;;;;;7.55;100.00;99910.97;5242421;28;20064;-75
2023/01/08 09:56:45;;;;;;;5.55;2.42;;;;;;;7.54;100.00;99910.16;5242493;28;20032;-71
2023/01/08 09:59:17;;;;;;;6.35;2.40;;;;;;;7.59;100.00;99912.00;5240951;28;20469;-74
2023/01/08 10:01:51;;;;;;;13.30;4.85;;;;;;;7.63;100.00;99911.13;5239874;28;20395;-74
2023/01/08 10:04:25;;;;;;;8.75;3.03;;;;;;;7.66;100.00;99906.97;5239261;28;20113;-76
2023/01/08 10:07:04;;;;;;;6.90;3.60;;;;;;;7.65;100.00;99902.56;5239181;28;20036;-75
2023/01/08 10:09:36;;;;;;;12.32;5.85;;;;;;;7.77;100.00;99902.13;5237354;28;20374;-76
2023/01/08 10:12:11;;;;;;;5.32;3.20;;;;;;;7.74;100.00;99892.50;5238422;28;20017;-75
2023/01/08 10:14:48;;;;;;;;;;;;;;;7.84;100.00;99902.63;5240003;28;20030;-75
2023/01/08 10:17:26;;;;;;;6.28;2.60;;;;;;;7.81;100.00;99895.75;5237687;28;19968;-74
2023/01/08 10:20:00;;;;;;;6.38;2.38;;;;;;;7.87;100.00;99890.16;5238756;28;20389;-75
2023/01/08 10:22:35;;;;;;;4.60;2.35;;;;;;;7.80;100.00;99894.13;5235745;28;20031;-76
2023/01/08 10:25:10;;;;;;;3.38;2.05;;;;;;;7.84;100.00;99895.16;5239541;28;20037;-76
2023/01/08 10:28:02;;;;;;;4.45;2.03;;;;;;;7.90;100.00;99889.56;5249125;28;20028;-75
2023/01/08 10:30:37;;;;;;;4.82;2.42;;;;;;;7.90;100.00;99889.56;5236978;28;20033;-76
2023/01/08 10:33:23;;;;;;;4.47;2.33;;;;;;;7.97;100.00;99879.81;5239370;28;20025;-75
2023/01/08 10:36:00;;;;;;;3.92;1.95;;;;;;;8.01;100.00;99888.34;5235340;28;20045;-75
2023/01/08 10:38:41;;;;;;;3.17;1.60;;;;;;;8.03;100.00;99888.88;5238252;28;20100;-76
2023/01/08 10:41:14;;;;;;;6.45;1.92;;;;;;;8.00;100.00;99872.88;5235986;28;20033;-75
2023/01/08 10:44:05;;;;;;;4.32;2.03;;;;;;;8.05;100.00;99864.53;5239460;28;20032;-74
2023/01/08 10:46:56;;;;;;;3.65;1.58;;;;;;;8.18;100.00;99863.81;5236017;28;20103;-74
2023/01/08 10:49:32;;;;;;;3.20;1.42;;;;;;;8.26;100.00;99854.84;5238763;28;20036;-77
2023/01/08 10:52:03;;;;;;;;;;;;;;;8.45;100.00;99854.88;5238052;28;20025;-75
2023/01/08 10:54:39;;;;;;;2.92;1.10;;;;;;;8.45;99.14;99851.28;5238646;28;20278;-75
2023/01/08 10:57:28;;;;;;;3.50;1.23;;;;;;;8.55;99.14;99851.13;5235334;28;20033;-73
2023/01/08 10:59:59;;;;;;;1.80;1.42;;;;;;;8.56;97.73;99838.94;5238937;28;20080;-75
2023/01/08 11:02:39;;;;;;;1.65;1.23;;;;;;;8.63;97.49;99835.81;5240486;28;20052;-75
2023/01/08 11:05:10;;;;;;;2.45;1.60;;;;;;;8.69;97.13;99846.50;5240227;28;20389;-74
2023/01/08 11:07:42;;;;;;;3.45;1.73;;;;;;;8.69;96.42;99835.44;5240927;28;20025;-74
2023/01/08 11:10:22;;;;;;;1.08;0.82;;;;;;;8.78;95.77;99830.03;5239460;28;20037;-74
2023/01/08 11:12:56;;;;;;;1.80;1.02;;;;;;;8.80;94.59;99829.72;5240228;28;20472;-74
2023/01/08 11:15:56;;;;;;;1.23;1.10;;;;;;;8.88;94.84;99815.22;5239231;28;20040;-75
2023/01/08 11:18:28;;;;;;;1.80;1.05;;;;;;;8.89;94.27;99822.38;5260801;28;20104;-75
2023/01/08 11:21:17;;;;;;;1.80;1.00;;;;;;;8.95;93.91;99820.31;5254198;28;20125;-75
2023/01/08 11:24:24;;;;;;;1.50;1.00;;;;;;;9.01;94.43;99803.34;5237208;28;20468;-75
2023/01/08 11:27:04;;;;;;;3.45;2.72;;;;;;;9.06;93.70;99807.97;5239153;28;20041;-74
2023/01/08 11:30:00;;;;;;;1.48;0.82;;;;;;;9.14;93.22;99801.72;5239409;28;20033;-73
2023/01/08 11:32:43;;;;;;;1.93;1.70;;;;;;;9.14;93.85;99799.78;5239086;28;20041;-75
2023/01/08 11:35:27;;;;;;;0.95;0.88;;;;;;;9.20;93.34;99794.97;5234434;28;20579;-73
2023/01/08 11:38:00;;;;;;;1.38;1.00;;;;;;;9.22;92.52;99797.44;5235893;28;20120;-74
2023/01/08 11:40:38;;;;;;;1.55;0.90;;;;;;;9.27;91.97;99792.63;5236119;28;20141;-75
2023/01/08 11:43:18;;;;;;;1.13;0.90;;;;;;;9.24;92.09;99790.47;5237407;28;20032;-74
2023/01/08 11:46:09;;;;;;;3.58;1.40;;;;;;;9.27;91.46;99778.78;5232946;28;20087;-73
2023/01/08 11:49:04;;;;;;;2.95;1.17;;;;;;;9.28;90.63;99777.69;5235380;28;20027;-73
2023/01/08 11:51:45;;;;;;;4.25;1.15;;;;;;;9.32;91.23;99775.09;5236586;28;20033;-74
2023/01/08 11:54:43;;;;;;;1.65;1.10;;;;;;;9.45;91.38;99762.38;5240890;28;21965;-73
2023/01/08 11:57:29;;;;;;;7.97;6.85;;;;;;;9.46;89.60;99772.31;5240665;28;20034;-74
2023/01/08 12:00:37;;;;;;;2.45;1.40;;;;;;;9.45;90.02;99777.03;5238010;28;20109;-75
2023/01/08 12:03:41;;;;;;;2.17;1.48;;;;;;;9.42;89.92;99779.63;5239150;28;20444;-74
2023/01/08 12:06:30;;;;;;;4.35;1.40;;;;;;;9.49;89.12;99778.06;5240253;28;20497;-73
2023/01/08 12:09:16;;;;;;;3.17;1.30;;;;;;;9.51;89.54;99774.97;5242777;28;20418;-74
2023/01/08 12:11:57;;;;;;;2.60;1.58;;;;;;;9.46;89.98;99773.16;5239951;28;20028;-74
2023/01/08 12:14:29;;;;;;;2.30;1.50;;;;;;;9.61;90.27;99760.13;5240517;28;20025;-76
2023/01/08 12:17:17;;;;;;;1.95;1.42;;;;;;;9.64;90.43;99760.34;5239402;28;20033;-75
2023/01/08 12:20:14;;;;;;;3.13;1.60;;;;;;;9.60;89.62;99769.56;5237405;28;20021;-75
2023/01/08 12:23:10;;;;;;;5.68;1.58;;;;;;;9.57;89.43;99760.75;5237777;28;20079;-76
2023/01/08 12:25:47;;;;;;;3.20;1.60;;;;;;;9.46;89.81;99756.56;5240541;28;20025;-76
2023/01/08 12:28:52;;;;;;;4.25;1.40;;;;;;;9.43;89.68;99756.34;5239937;28;20051;-76
2023/01/08 12:31:44;;;;;;;3.65;1.60;;;;;;;9.41;89.41;99755.81;5240799;28;20142;-75
2023/01/08 12:34:26;;;;;;;4.72;1.70;;;;;;;9.40;89.91;99746.69;5236148;28;20083;-74
2023/01/08 12:37:13;;;;;;;4.85;1.58;;;;;;;9.42;89.99;99743.63;5238479;28;20037;-74
2023/01/08 12:39:50;;;;;;;3.67;1.73;;;;;;;9.42;88.08;99751.94;5238195;28;20027;-74
2023/01/08 12:42:28;;;;;;;9.80;2.28;;;;;;;9.47;87.90;99733.28;5241621;28;20521;-74
2023/01/08 12:45:03;;;;;;;4.50;1.60;;;;;;;9.55;87.90;99735.31;5242372;28;20029;-74
2023/01/08 12:47:38;;;;;;;;;;;;;;;9.70;87.96;99736.94;5238477;28;20109;-73
2023/01/08 12:50:24;;;;;;;3.28;1.50;;;;;;;9.72;86.60;99733.88;5236788;28;19956;-74
2023/01/08 12:53:07;;;;;;;7.07;2.72;;;;;;;9.72;85.56;99731.09;5238467;28;20026;-74
2023/01/08 12:55:47;;;;;;;4.22;1.80;;;;;;;9.75;84.52;99734.06;5241246;28;20464;-74
2023/01/08 12:58:30;;;;;;;4.07;1.98;;;;;;;9.78;83.98;99732.59;5241048;28;20021;-74
2023/01/08 13:01:34;;;;;;;7.22;1.75;;;;;;;9.80;84.73;99730.34;5242027;28;20112;-77
2023/01/08 13:04:08;;;;;;;5.40;1.77;;;;;;;9.75;84.00;99722.16;5241931;28;20226;-76
2023/01/08 13:07:02;;;;;;;3.67;2.10;;;;;;;9.85;84.50;99721.94;5233845;28;20132;-76
2023/01/08 13:09:35;;;;;;;4.88;1.65;;;;;;;9.82;83.98;99722.56;5240257;28;20041;-75
2023/01/08 13:12:07;;;;;;;6.85;1.77;;;;;;;9.83;83.67;99715.88;5240622;28;20036;-75
2023/01/08 13:14:41;;;;;;;3.65;1.48;;;;;;;9.87;83.00;99708.59;5241748;28;20021;-75
2023/01/08 13:17:21;;;;;;;4.95;1.48;;;;;;;9.81;83.56;99709.81;5240828;28;20083;-76
2023/01/08 13:19:57;;;;;;;3.83;2.05;;;;;;;9.84;83.18;99698.13;5241758;28;20112;-76
2023/01/08 13:22:32;;;;;;;3.28;1.33;;;;;;;9.85;83.08;99699.78;5240843;28;20109;-73
2023/01/08 13:25:18;;;;;;;5.03;1.70;;;;;;;9.95;83.02;99696.75;5240948;28;20040;-75
2023/01/08 13:27:50;;;;;;;3.35;2.33;;;;;;;9.99;81.99;99705.25;5241238;28;20369;-76
2023/01/08 13:30:54;;;;;;;5.28;1.73;;;;;;;10.09;81.32;99705.00;5240664;28;20028;-74
2023/01/08 13:33:33;;;;;;;3.13;1.40;;;;;;;9.90;80.94;99696.88;5229302;28;20053;-74
2023/01/08 13:36:32;;;;;;;4.93;1.40;;;;;;;9.84;82.40;99698.13;5238284;28;20021;-73
2023/01/08 13:39:09;;;;;;;3.85;1.50;;;;;;;9.87;80.72;99691.13;5238872;28;20030;-73
2023/01/08 13:42:01;;;;;;;4.68;2.00;;;;;;;9.91;81.18;99687.44;5238715;28;20511;-73
2023/01/08 13:44:39;;;;;;;3.33;1.77;;;;;;;9.87;80.32;99686.44;5239645;28;20022;-74
2023/01/08 13:47:34;;;;;;;4.60;1.60;;;;;;;9.81;80.32;99687.66;5240977;28;20033;-74
2023/01/08 13:50:29;;;;;;;7.45;1.73;;;;;;;9.76;80.70;99685.84;5237760;28;20120;-75
2023/01/08 13:53:02;;;;;;;6.15;1.73;;;;;;;9.65;80.53;99667.84;5238401;28;20028;-74
2023/01/08 13:55:38;;;;;;;5.93;1.85;;;;;;;9.76;81.01;99669.22;5240630;28;20057;-75
2023/01/08 13:58:24;;;;;;;4.55;1.67;;;;;;;9.88;80.97;99663.13;5239916;28;20520;-75
2023/01/08 14:00:57;;;;;;;6.43;1.90;;;;;;;9.98;79.23;99662.91;5240586;28;20443;-74
2023/01/08 14:03:38;;;;;;;4.47;2.45;;;;;;;10.10;79.00;99656.78;5240710;28;20026;-74
2023/01/08 14:06:17;;;;;;;2.65;1.63;;;;;;;10.19;79.19;99657.66;5236876;28;20049;-74
2023/01/08 14:08:53;;;;;;;5.88;1.65;;;;;;;10.19;78.48;99648.53;5240107;28;20018;-74
2023/01/08 14:11:46;;;;;;;6.35;1.75;;;;;;;10.30;78.77;99644.38;5240151;28;20048;-74
2023/01/08 14:14:20;;;;;;;4.47;1.60;;;;;;;10.23;78.48;99644.81;5234905;28;20040;-75
2023/01/08 14:16:52;;;;;;;2.90;1.50;;;;;;;10.20;79.31;99636.31;5239841;28;20013;-75
2023/01/08 14:19:25;;;;;;;2.95;1.33;;;;;;;10.17;78.35;99639.72;5240297;28;20048;-75
2023/01/08 14:22:00;;;;;;;7.40;2.03;;;;;;;10.06;78.91;99639.16;5240487;28;20034;-80
2023/01/08 14:24:32;;;;;;;3.47;1.58;;;;;;;10.05;79.25;99631.16;5237132;28;20033;-78
2023/01/08 14:27:03;;;;;;;3.85;1.90;;;;;;;10.00;79.75;99621.84;5230677;28;20025;-75
2023/01/08 14:29:35;;;;;;;4.85;1.90;;;;;;;10.06;79.00;99610.66;5223933;28;20438;-76
2023/01/08 14:32:15;;;;;;;7.80;3.15;;;;;;;10.00;79.12;99610.78;5236591;28;20132;-77
2023/01/08 14:34:50;;;;;;;5.63;1.88;;;;;;;9.92;79.66;99616.25;5239813;28;20029;-76
2023/01/08 14:37:21;;;;;;;3.63;1.58;;;;;;;9.92;79.70;99608.78;5239651;28;20048;-78
2023/01/08 14:39:52;;;;;;;5.40;2.10;;;;;;;9.87;80.00;99603.38;5237976;28;20017;-76
2023/01/08 14:42:41;;;;;;;6.53;2.35;;;;;;;9.90;79.60;99602.72;5239755;28;20037;-76
2023/01/08 14:45:31;;;;;;;5.22;2.40;;;;;;;9.88;79.64;99602.22;5238206;28;20171;-76
2023/01/08 14:48:14;;;;;;;3.45;1.55;;;;;;;9.85;79.67;99594.53;5232344;28;20021;-76
2023/01/08 14:51:07;;;;;;;3.75;1.70;;;;;;;9.85;80.12;99593.72;5239824;28;20025;-76
2023/01/08 14:53:45;;;;;;;14.30;8.40;;;;;;;9.80;79.66;99591.91;5239417;28;20057;-76
2023/01/08 14:56:22;;;;;;;5.72;3.53;;;;;;;9.79;80.63;99593.03;5235675;28;20083;-76
2023/01/08 14:58:54;;;;;;;4.32;1.92;;;;;;;9.78;80.34;99585.84;5220876;28;20057;-76
2023/01/08 15:01:30;;;;;;;2.83;1.88;;;;;;;9.75;81.38;99583.72;5220965;28;20030;-77
2023/01/08 15:04:16;;;;;;;3.70;1.63;;;;;;;9.72;81.17;99585.16;5225603;28;20049;-77
2023/01/08 15:06:50;;;;;;;3.35;1.90;;;;;;;9.68;81.66;99583.34;5220907;28;20046;-75
2023/01/08 15:09:29;;;;;;;4.95;2.08;;;;;;;9.67;81.58;99568.69;5220070;28;20101;-74
2023/01/08 15:12:04;;;;;;;5.93;2.13;;;;;;;9.59;81.18;99566.69;5220987;28;20088;-75
2023/01/08 15:14:35;;;;;;;6.95;2.90;;;;;;;9.54;81.76;99562.06;5234274;28;20037;-75
2023/01/08 15:17:11;;;;;;;6.53;2.35;;;;;;;9.54;82.25;99561.28;5239929;28;20075;-76
2023/01/08 15:19:50;;;;;;;4.95;2.92;;;;;;;9.55;81.55;99558.16;5231171;28;20215;-76
2023/01/08 15:22:24;;;;;;;3.92;1.60;;;;;;;9.50;82.00;99566.59;5238793;28;20026;-75
2023/01/08 15:25:03;;;;;;;6.32;2.30;;;;;;;9.42;82.33;99558.22;5243050;28;20049;-78
2023/01/08 15:27:36;;;;;;;5.75;1.85;;;;;;;9.44;82.55;99558.75;5243099;28;20043;-76
2023/01/08 15:30:24;;;;;;;5.22;1.85;;;;;;;9.42;83.21;99549.94;5254213;28;20075;-76
2023/01/08 15:33:22;;;;;;;5.15;1.98;;;;;;;9.41;82.72;99551.88;5244979;28;20064;-76
2023/01/08 15:35:54;;;;;;;6.03;2.10;;;;;;;9.32;82.91;99548.22;5223658;28;20026;-76
2023/01/08 15:38:25;;;;;;;6.38;2.70;;;;;;;9.30;83.28;99561.53;5225220;28;20066;-76
2023/01/08 15:40:57;;;;;;;7.97;2.47;;;;;;;9.23;83.64;99550.09;5224559;28;20504;-78
2023/01/08 15:43:28;;;;;;;8.40;3.10;;;;;;;9.22;83.78;99554.81;5223841;28;20026;-77
2023/01/08 15:45:59;;;;;;;4.68;2.20;;;;;;;9.25;82.85;99548.63;5224755;28;20018;-75
2023/01/08 15:48:31;;;;;;;4.20;1.92;;;;;;;9.20;83.16;99545.19;5224475;28;20022;-77
2023/01/08 15:51:05;;;;;;;4.93;2.00;;;;;;;9.19;83.71;99543.56;5223723;28;20091;-77
2023/01/08 15:53:37;;;;;;;4.70;2.00;;;;;;;9.14;83.16;99542.53;5224936;28;20022;-77
2023/01/08 15:56:08;;;;;;;4.70;1.73;;;;;;;9.16;83.88;99544.19;5234124;28;20071;-76
2023/01/08 15:58:39;;;;;;;4.68;1.88;;;;;;;9.12;83.37;99543.97;5243893;28;20091;-75
2023/01/08 16:01:11;;;;;;;5.55;2.10;;;;;;;9.14;83.83;99542.53;5238768;28;20057;-77
2023/01/08 16:03:43;;;;;;;7.88;2.85;;;;;;;9.17;83.69;99538.31;5223370;28;20132;-78
2023/01/08 16:06:14;;;;;;;5.30;2.50;;;;;;;9.16;83.80;99535.88;5224051;28;20046;-77
2023/01/08 16:08:46;;;;;;;7.25;2.38;;;;;;;9.12;83.44;99536.50;5226952;28;20323;-76
2023/01/08 16:11:18;;;;;;;5.63;2.70;;;;;;;9.17;83.58;99541.09;5242961;28;20025;-77
2023/01/08 16:13:49;;;;;;;4.15;1.98;;;;;;;9.12;84.04;99539.25;5239991;28;20033;-76
2023/01/08 16:16:22;;;;;;;7.00;3.03;;;;;;;9.06;84.48;99540.50;5234241;28;20028;-77
2023/01/08 16:18:53;;;;;;;6.95;2.47;;;;;;;9.13;84.21;99540.91;5224100;28;20422;-76
2023/01/08 16:21:24;;;;;;;3.17;1.88;;;;;;;9.09;84.72;99545.41;5224659;28;20026;-77
2023/01/08 16:23:59;;;;;;;5.93;2.45;;;;;;;9.09;84.47;99550.13;5225567;28;20543;-76
2023/01/08 16:26:33;;;;;;;5.32;2.03;;;;;;;9.03;84.56;99552.19;5239837;28;20072;-76
2023/01/08 16:29:07;;;;;;;4.43;1.95;;;;;;;9.08;84.49;99548.50;5225131;28;20080;-78
2023/01/08 16:31:44;;;;;;;3.30;1.80;;;;;;;9.12;84.43;99544.78;5223932;28;20087;-76
2023/01/08 16:34:16;;;;;;;3.53;1.40;;;;;;;9.10;84.43;99546.22;5222850;28;20050;-78
2023/01/08 16:36:48;;;;;;;3.53;1.73;;;;;;;9.10;84.96;99540.69;5223869;28;20033;-77
